Haelen, Netherlands
Current Conditions -  °F | °C
As of 6:25 PM on Monday 24 Nov 2014 (Local Time) from EBBL Reporting Station
Few Clouds Few Clouds  
Wind Chill: 37°   Ceiling: Unl
Heat Index: 37°   Visibility: 6mi
Dew Point: 36°   Wind: 1mph
Humidity: 93%   Direction: NA
Pressure: 30.33"   Gusts: NA
Location:  51.24°N, 5.96°E
Report Text: EBBL 241725Z VRB01KT 9999 FEW240 03/02 Q1027 BLU BLU
Loading
Personal Weather Stations






























Interactive Weather Map New forecast layout! Learn more

10-Day Weather Forecast

Advertisements
Track Severe Weather on mobile